Hovedside
METAR-TAF:

METAR-TAF

Lufthavner :

Palanga internasjonale lufthavn

Palanga, Litauen

breddegrad: 55-55-12N, lengdegrad: 021-03E, høyde over havet: 10 m

Gjeldene værobservasjon

Denne rapporten ble laget for 28 minutter siden, klokken 18:50 UTC
Vind 5 kt fra Nord-nordvest, skiftende mellom Vest-nordvest og Nord-nordøst
Temperatur 10°C
Luftfuktighet 62%
Trykk 1028 hPa
Sikt 10 km eller mer
ingen skyer under 1500 m og ingen bygeskyer

METAR: EYPA 201850Z 34005KT 300V020 CAVOK 10/03 Q1028

Tid: 22:18 (19:18 UTC)

Varsel

Denne rapporten ble laget for 2 timer og 17 minutter siden, klokken 17:01 UTC
Varsel gyldig fra 20. klokken 18 UTC til 21. klokken 18 UTC
Vind 5 kt fra skiftende retning
Sikt 10 km eller mer
ingen skyer under 1500 m og ingen bygeskyer
Midlertidig
fra 21. klokken 08 UTC til 21. klokken 17 UTC
Vind 15 kt fra Øst

TAF: EYPA 201701Z 2018/2118 VRB05KT CAVOK TEMPO 2108/2117 08015KT

Værobservasjoner og værvarsel for over 4000 flyplasser (METAR- og TAF-rapporter).

Tilgjengelige stasjoner er representert av de røde og gule prikkene på kartet.

Hold musepekeren over prikken for å se navnet på stasjonen.

Klikk så for å se værobservasjoner og -varsler.

For å forandre kartet kan du klikke på den grønne knappen med svart kryss for å zoome inn, på den grønne knappen med strek for å zoome ut, eller på de grønne pilene for å se tilstøtende kart.


METAR-TAF: